createdAt,value
2023-03-24T00:00:11.584Z,97751.50
2023-03-24T00:02:42.177Z,97749.84
2023-03-24T00:05:11.616Z,97748.81
2023-03-24T00:07:40.299Z,97751.50
2023-03-24T00:10:10.924Z,97746.13
2023-03-24T00:12:39.851Z,97750.69
2023-03-24T00:15:12.743Z,97743.66
2023-03-24T00:17:41.276Z,97744.47
2023-03-24T00:20:15.162Z,97744.47
2023-03-24T00:22:48.576Z,97732.91
2023-03-24T00:25:17.396Z,97734.56
2023-03-24T00:27:48.932Z,97735.59
2023-03-24T00:30:20.449Z,97732.91
2023-03-24T00:32:48.974Z,97738.28
2023-03-24T00:35:17.975Z,97738.28
2023-03-24T00:37:46.539Z,97738.28
2023-03-24T00:40:17.919Z,97728.34
2023-03-24T00:42:47.917Z,97724.84
2023-03-24T00:45:20.496Z,97712.22
2023-03-24T00:47:50.380Z,97715.09
2023-03-24T00:50:26.881Z,97711.56
2023-03-24T00:52:56.215Z,97709.72
2023-03-24T00:55:28.786Z,97707.03
2023-03-24T00:57:57.526Z,97692.75
2023-03-24T01:00:28.038Z,97695.44
2023-03-24T01:02:58.540Z,97686.56
2023-03-24T01:05:28.903Z,97682.00
2023-03-24T01:07:58.106Z,97682.00
2023-03-24T01:10:27.193Z,97683.88
2023-03-24T01:12:56.815Z,97683.69
2023-03-24T01:15:29.799Z,97679.31
2023-03-24T01:17:58.581Z,97682.00
2023-03-24T01:20:27.291Z,97678.31
2023-03-24T01:22:55.995Z,97672.94
2023-03-24T01:25:25.695Z,97673.94
2023-03-24T01:27:54.275Z,97678.31
2023-03-24T01:30:24.743Z,97674.75
2023-03-24T01:32:54.830Z,97683.69
2023-03-24T01:35:28.378Z,97676.63
2023-03-24T01:37:57.617Z,97673.94
2023-03-24T01:40:28.414Z,97670.25
2023-03-24T01:42:57.008Z,97672.06
2023-03-24T01:46:01.614Z,97670.25
2023-03-24T01:48:34.801Z,97668.38
2023-03-24T01:51:06.097Z,97676.44
2023-03-24T01:53:35.570Z,97668.56
2023-03-24T01:56:04.076Z,97661.31
2023-03-24T01:58:33.243Z,97668.38
2023-03-24T02:01:01.789Z,97670.25
2023-03-24T02:03:34.322Z,97664.88
2023-03-24T02:06:03.646Z,97664.88
2023-03-24T02:08:35.802Z,97669.38
2023-03-24T02:11:04.294Z,97664.00
2023-03-24T02:13:32.707Z,97659.47
2023-03-24T02:16:14.101Z,97652.44
2023-03-24T02:18:48.499Z,97649.75
2023-03-24T02:22:02.255Z,97655.13
2023-03-24T02:25:19.021Z,97658.63
2023-03-24T02:28:05.737Z,97654.28
2023-03-24T02:31:14.907Z,97649.75
2023-03-24T02:34:27.470Z,97652.44
2023-03-24T02:37:38.568Z,97647.06
2023-03-24T02:40:22.089Z,97648.91
2023-03-24T02:43:15.130Z,97645.41
2023-03-24T02:45:49.401Z,97642.72
2023-03-24T02:48:24.378Z,97635.66
2023-03-24T02:50:57.495Z,97646.22
2023-03-24T02:53:32.380Z,97642.72
2023-03-24T02:56:04.983Z,97642.72
2023-03-24T02:58:37.300Z,97649.94
2023-03-24T03:01:08.458Z,97649.94
2023-03-24T03:03:41.702Z,97642.50
2023-03-24T03:06:14.569Z,97638.16
2023-03-24T03:08:43.648Z,97641.03
2023-03-24T03:11:16.070Z,97642.72
2023-03-24T03:13:47.906Z,97636.50
2023-03-24T03:16:19.445Z,97637.34
2023-03-24T03:18:51.963Z,97644.56
2023-03-24T03:21:22.767Z,97649.94
2023-03-24T03:23:54.066Z,97637.50
2023-03-24T03:26:24.580Z,97641.03
2023-03-24T03:28:58.013Z,97640.22
2023-03-24T03:31:30.247Z,97640.22
2023-03-24T03:34:05.085Z,97639.38
2023-03-24T03:36:35.617Z,97634.81
2023-03-24T03:39:09.722Z,97640.22
2023-03-24T03:41:39.573Z,97635.66
2023-03-24T03:44:08.099Z,97638.34
2023-03-24T03:46:36.878Z,97630.28
2023-03-24T03:49:05.531Z,97640.22
2023-03-24T03:51:34.658Z,97625.13
2023-03-24T03:54:05.013Z,97630.28
2023-03-24T03:56:36.585Z,97631.31
2023-03-24T03:59:06.765Z,97626.97
2023-03-24T04:01:37.576Z,97623.25
2023-03-24T04:04:41.925Z,97629.44
2023-03-24T04:07:14.294Z,97623.25
2023-03-24T04:09:49.239Z,97629.44
2023-03-24T04:12:40.959Z,97629.44
2023-03-24T04:15:36.043Z,97623.25
2023-03-24T04:18:38.939Z,97626.75
2023-03-24T04:21:28.457Z,97627.81
2023-03-24T04:24:00.186Z,97628.63
2023-03-24T04:26:34.553Z,97631.31
2023-03-24T04:29:10.093Z,97627.59
2023-03-24T04:31:42.969Z,97624.06
2023-03-24T04:34:15.811Z,97627.81
2023-03-24T04:36:46.000Z,97625.94
2023-03-24T04:39:17.873Z,97627.59
2023-03-24T04:41:47.596Z,97628.63
2023-03-24T04:44:17.725Z,97625.94
2023-03-24T04:46:47.672Z,97617.88
2023-03-24T04:49:16.115Z,97623.25
2023-03-24T04:51:44.679Z,97629.44
2023-03-24T04:54:13.158Z,97627.81
2023-03-24T04:56:42.790Z,97627.81
2023-03-24T04:59:13.044Z,97625.13
2023-03-24T05:01:41.537Z,97619.75
2023-03-24T05:04:12.062Z,97620.78
2023-03-24T05:06:40.520Z,97618.09
2023-03-24T05:09:09.046Z,97615.41
2023-03-24T05:11:37.947Z,97613.53
2023-03-24T05:14:06.423Z,97616.22
2023-03-24T05:16:34.908Z,97609.16
2023-03-24T05:19:03.475Z,97618.09
2023-03-24T05:21:33.864Z,97610.84
2023-03-24T05:24:02.324Z,97606.47
2023-03-24T05:26:33.150Z,97607.34
2023-03-24T05:29:01.927Z,97603.78
2023-03-24T05:31:30.611Z,97608.16
2023-03-24T05:33:59.103Z,97608.16
2023-03-24T05:36:27.761Z,97612.72
2023-03-24T05:38:57.598Z,97615.41
2023-03-24T05:41:26.063Z,97622.59
2023-03-24T05:43:54.557Z,97616.22
2023-03-24T05:46:26.349Z,97605.47
2023-03-24T05:48:54.965Z,97597.59
2023-03-24T05:51:23.431Z,97600.09
2023-03-24T05:53:52.238Z,97593.69
2023-03-24T05:56:22.080Z,97606.28
2023-03-24T05:58:51.594Z,97598.22
2023-03-24T06:01:20.032Z,97600.91
2023-03-24T06:03:49.541Z,97601.75
2023-03-24T06:06:18.699Z,97599.06
2023-03-24T06:08:47.148Z,97602.56
2023-03-24T06:11:16.458Z,97608.78
2023-03-24T06:13:46.236Z,97601.56
2023-03-24T06:16:14.788Z,97604.84
2023-03-24T06:18:43.415Z,97598.25
2023-03-24T06:21:11.853Z,97598.47
2023-03-24T06:23:40.314Z,97597.66
2023-03-24T06:26:11.649Z,97601.16
2023-03-24T06:28:42.196Z,97595.56
2023-03-24T06:31:15.273Z,97601.59
2023-03-24T06:33:43.799Z,97602.63
2023-03-24T06:36:13.747Z,97602.81
2023-03-24T06:38:42.862Z,97594.56
2023-03-24T06:41:11.341Z,97605.31
2023-03-24T06:43:39.799Z,97598.25
2023-03-24T06:46:10.176Z,97601.81
2023-03-24T06:48:40.262Z,97602.38
2023-03-24T06:51:08.943Z,97597.16
2023-03-24T06:53:37.914Z,97592.78
2023-03-24T06:56:07.660Z,97590.91
2023-03-24T06:58:36.215Z,97582.59
2023-03-24T07:01:04.686Z,97587.97
2023-03-24T07:03:33.246Z,97598.06
2023-03-24T07:06:03.123Z,97592.53
2023-03-24T07:08:38.156Z,97588.19
2023-03-24T07:11:08.943Z,97593.81
2023-03-24T07:13:37.628Z,97590.91
2023-03-24T07:16:07.003Z,97594.22
2023-03-24T07:18:36.301Z,97609.97
2023-03-24T07:21:06.715Z,97597.16
2023-03-24T07:23:35.275Z,97595.47
2023-03-24T07:26:03.729Z,97597.16
2023-03-24T07:28:32.167Z,97591.56
2023-03-24T07:31:04.034Z,97591.56
2023-03-24T07:33:33.001Z,97586.19
2023-03-24T07:36:01.457Z,97586.19
2023-03-24T07:38:31.386Z,97585.19
2023-03-24T07:41:00.518Z,97579.81
2023-03-24T07:43:28.966Z,97586.00
2023-03-24T07:45:57.478Z,97586.84
2023-03-24T07:48:26.190Z,97581.28
2023-03-24T07:50:55.074Z,97582.09
2023-03-24T07:53:23.979Z,97575.06
2023-03-24T07:55:53.847Z,97569.69
2023-03-24T07:58:22.452Z,97567.00
2023-03-24T08:00:51.160Z,97557.91
2023-03-24T08:03:25.594Z,97556.25
2023-03-24T08:05:55.240Z,97561.41
2023-03-24T08:08:23.790Z,97556.03
2023-03-24T08:10:53.617Z,97558.72
2023-03-24T08:13:22.655Z,97560.38
2023-03-24T08:15:51.449Z,97557.69
2023-03-24T08:18:21.004Z,97555.84
2023-03-24T08:20:49.642Z,97548.63
2023-03-24T08:23:18.295Z,97548.63
2023-03-24T08:25:47.808Z,97537.84
2023-03-24T08:28:17.831Z,97545.94
2023-03-24T08:30:46.794Z,97547.56
2023-03-24T08:33:16.841Z,97542.00
2023-03-24T08:35:46.752Z,97543.03
2023-03-24T08:38:18.807Z,97540.97
2023-03-24T08:40:49.119Z,97539.09
2023-03-24T08:43:21.262Z,97539.97
2023-03-24T08:45:50.089Z,97529.00
2023-03-24T08:48:18.890Z,97528.19
2023-03-24T08:50:47.332Z,97531.91
2023-03-24T08:53:15.946Z,97524.47
2023-03-24T08:55:45.515Z,97517.25
2023-03-24T08:58:15.722Z,97512.69
2023-03-24T09:00:46.160Z,97513.72
2023-03-24T09:03:18.427Z,97505.03
2023-03-24T09:05:47.937Z,97512.06
2023-03-24T09:08:17.717Z,97495.91
2023-03-24T09:10:47.653Z,97498.81
2023-03-24T09:13:16.734Z,97494.28
2023-03-24T09:15:50.033Z,97500.47
2023-03-24T09:18:18.903Z,97493.88
2023-03-24T09:20:47.774Z,97497.19
2023-03-24T09:23:16.457Z,97487.66
2023-03-24T09:25:45.569Z,97489.53
2023-03-24T09:28:16.394Z,97488.72
2023-03-24T09:30:45.144Z,97479.59
2023-03-24T09:33:15.244Z,97486.84
2023-03-24T09:35:43.771Z,97483.09
2023-03-24T09:38:12.743Z,97477.72
2023-03-24T09:40:41.456Z,97466.97
2023-03-24T09:43:15.395Z,97469.47
2023-03-24T09:45:50.093Z,97455.00
2023-03-24T09:48:22.193Z,97464.91
2023-03-24T09:50:53.165Z,97457.69
2023-03-24T09:53:29.397Z,97451.28
2023-03-24T09:56:08.020Z,97450.03
2023-03-24T09:58:36.609Z,97447.56
2023-03-24T10:01:05.254Z,97453.34
2023-03-24T10:03:35.199Z,97449.19
2023-03-24T10:06:07.564Z,97443.81
2023-03-24T10:08:37.238Z,97447.56
2023-03-24T10:11:07.570Z,97441.78
2023-03-24T10:13:47.007Z,97446.31
2023-03-24T10:16:19.181Z,97447.97
2023-03-24T10:18:53.477Z,97443.41
2023-03-24T10:21:23.516Z,97437.03
2023-03-24T10:23:56.801Z,97439.50
2023-03-24T10:26:33.998Z,97438.03
2023-03-24T10:29:14.892Z,97433.09
2023-03-24T10:31:43.462Z,97434.78
2023-03-24T10:34:14.410Z,97430.03
2023-03-24T10:36:43.608Z,97434.78
2023-03-24T10:39:20.975Z,97438.28
2023-03-24T10:41:51.100Z,97431.06
2023-03-24T10:44:19.528Z,97431.69
2023-03-24T10:46:50.714Z,97426.31
2023-03-24T10:49:22.091Z,97426.53
2023-03-24T10:51:51.559Z,97423.59
2023-03-24T10:54:22.083Z,97427.97
2023-03-24T10:56:51.636Z,97412.44
2023-03-24T10:59:27.615Z,97419.50
2023-03-24T11:02:06.330Z,97422.38
2023-03-24T11:04:36.201Z,97419.50
2023-03-24T11:07:07.080Z,97421.13
2023-03-24T11:09:42.387Z,97418.25
2023-03-24T11:12:26.273Z,97423.63
2023-03-24T11:15:10.375Z,97408.31
2023-03-24T11:17:47.165Z,97414.75
2023-03-24T11:20:21.666Z,97405.63
2023-03-24T11:23:03.783Z,97407.50
2023-03-24T11:25:34.457Z,97399.22
2023-03-24T11:28:04.979Z,97388.44
2023-03-24T11:30:36.324Z,97389.91
2023-03-24T11:33:06.440Z,97375.81
2023-03-24T11:35:41.741Z,97374.75
2023-03-24T11:38:15.177Z,97367.91
2023-03-24T11:40:53.867Z,97367.28
2023-03-24T11:43:22.469Z,97358.41
2023-03-24T11:45:57.815Z,97359.84
2023-03-24T11:48:29.219Z,97348.47
2023-03-24T11:50:59.147Z,97358.22
2023-03-24T11:53:29.800Z,97350.53
2023-03-24T11:56:01.314Z,97343.50
2023-03-24T11:58:32.795Z,97345.38
2023-03-24T12:01:04.223Z,97348.69
2023-03-24T12:03:54.166Z,97349.69
2023-03-24T12:06:34.982Z,97342.69
2023-03-24T12:09:15.748Z,97343.91
2023-03-24T12:11:58.986Z,97335.84
2023-03-24T12:14:35.457Z,97337.50
2023-03-24T12:17:06.808Z,97333.78
2023-03-24T12:20:05.170Z,97331.94
2023-03-24T12:22:50.286Z,97326.75
2023-03-24T12:25:41.570Z,97336.66
2023-03-24T12:28:51.465Z,97326.75
2023-03-24T12:31:56.364Z,97322.22
2023-03-24T12:34:49.008Z,97319.31
2023-03-24T12:37:22.313Z,97321.16
2023-03-24T12:39:57.930Z,97316.63
2023-03-24T12:42:26.430Z,97316.84
2023-03-24T12:45:26.321Z,97317.03
2023-03-24T12:48:23.747Z,97308.34
2023-03-24T12:51:07.027Z,97307.72
2023-03-24T12:53:43.391Z,97300.47
2023-03-24T12:56:15.577Z,97306.06
2023-03-24T12:58:46.323Z,97293.66
2023-03-24T13:01:20.885Z,97301.53
2023-03-24T13:03:50.905Z,97295.91
2023-03-24T13:06:23.470Z,97288.69
2023-03-24T13:09:13.458Z,97292.22
2023-03-24T13:11:50.033Z,97288.91
2023-03-24T13:14:23.044Z,97296.75
2023-03-24T13:16:51.559Z,97289.53
2023-03-24T13:19:22.308Z,97284.16
2023-03-24T13:21:52.097Z,97281.66
2023-03-24T13:24:21.009Z,97277.91
2023-03-24T13:26:57.431Z,97279.59
2023-03-24T13:29:48.679Z,97268.00
2023-03-24T13:32:26.950Z,97273.41
2023-03-24T13:34:58.202Z,97269.03
2023-03-24T13:37:29.613Z,97269.03
2023-03-24T13:40:00.214Z,97266.75
2023-03-24T13:42:32.989Z,97264.09
2023-03-24T13:45:02.073Z,97259.72
2023-03-24T13:47:49.568Z,97252.72
2023-03-24T13:50:18.115Z,97255.41
2023-03-24T13:52:47.706Z,97251.25
2023-03-24T13:55:21.577Z,97247.09
2023-03-24T13:57:57.360Z,97250.63
2023-03-24T14:00:26.766Z,97239.88
2023-03-24T14:02:55.600Z,97244.41
2023-03-24T14:05:43.394Z,97242.56
2023-03-24T14:08:17.669Z,97248.78
2023-03-24T14:10:50.127Z,97236.97
2023-03-24T14:13:47.315Z,97240.72
2023-03-24T14:16:44.488Z,97232.63
2023-03-24T14:19:27.312Z,97229.13
2023-03-24T14:22:05.024Z,97230.78
2023-03-24T14:24:34.035Z,97227.03
2023-03-24T14:27:02.477Z,97220.84
2023-03-24T14:29:43.421Z,97216.28
2023-03-24T14:32:20.329Z,97222.50
2023-03-24T14:34:58.148Z,97214.44
2023-03-24T14:37:27.304Z,97202.84
2023-03-24T14:39:57.522Z,97199.31
2023-03-24T14:43:06.370Z,97201.00
2023-03-24T14:46:02.346Z,97200.13
2023-03-24T14:48:38.204Z,97199.13
2023-03-24T14:51:36.921Z,97200.13
2023-03-24T14:54:14.864Z,97192.72
2023-03-24T14:56:44.703Z,97207.00
2023-03-24T14:59:22.072Z,97194.56
2023-03-24T15:01:52.554Z,97182.38
2023-03-24T15:04:21.919Z,97192.94
2023-03-24T15:06:50.511Z,97193.13
2023-03-24T15:09:19.493Z,97194.16
2023-03-24T15:11:48.703Z,97188.56
2023-03-24T15:14:23.404Z,97191.88
2023-03-24T15:16:59.320Z,97184.47
2023-03-24T15:19:29.102Z,97181.97
2023-03-24T15:22:02.747Z,97184.00
2023-03-24T15:24:34.086Z,97185.88
2023-03-24T15:27:26.519Z,97182.38
2023-03-24T15:29:57.770Z,97177.00
2023-03-24T15:32:32.054Z,97192.06
2023-03-24T15:35:01.853Z,97188.78
2023-03-24T15:37:34.620Z,97193.13
2023-03-24T15:40:15.664Z,97187.75
2023-03-24T15:42:46.172Z,97195.81
2023-03-24T15:45:22.253Z,97192.31
2023-03-24T15:47:53.255Z,97203.88
2023-03-24T15:50:33.287Z,97215.47
2023-03-24T15:53:03.507Z,97209.25
2023-03-24T15:55:34.982Z,97216.28
2023-03-24T15:58:15.762Z,97221.91
2023-03-24T16:00:45.710Z,97219.63
2023-03-24T16:03:18.032Z,97222.53
2023-03-24T16:05:51.382Z,97220.66
2023-03-24T16:08:28.995Z,97227.91
2023-03-24T16:10:59.659Z,97220.66
2023-03-24T16:13:28.315Z,97225.22
2023-03-24T16:15:58.920Z,97222.09
2023-03-24T16:18:33.076Z,97223.16
2023-03-24T16:21:02.485Z,97222.91
2023-03-24T16:23:31.637Z,97221.09
2023-03-24T16:26:00.132Z,97234.13
2023-03-24T16:28:28.774Z,97242.38
2023-03-24T16:30:59.662Z,97236.81
2023-03-24T16:33:30.458Z,97235.97
2023-03-24T16:35:59.166Z,97247.75
2023-03-24T16:38:27.905Z,97240.50
2023-03-24T16:40:57.611Z,97248.56
2023-03-24T16:43:27.499Z,97246.94
2023-03-24T16:45:56.115Z,97251.69
2023-03-24T16:48:24.707Z,97244.25
2023-03-24T16:50:56.296Z,97244.25
2023-03-24T16:53:24.864Z,97244.06
2023-03-24T16:55:53.333Z,97250.25
2023-03-24T16:58:21.908Z,97254.19
2023-03-24T17:00:51.887Z,97253.97
2023-03-24T17:03:20.463Z,97256.06
2023-03-24T17:05:50.799Z,97246.31
2023-03-24T17:08:20.740Z,97249.44
2023-03-24T17:10:50.703Z,97243.81
2023-03-24T17:13:20.339Z,97248.16
2023-03-24T17:15:48.842Z,97248.16
2023-03-24T17:18:17.443Z,97241.13
2023-03-24T17:20:46.463Z,97230.38
2023-03-24T17:23:15.931Z,97208.84
2023-03-24T17:25:45.992Z,97176.56
2023-03-24T17:28:15.763Z,97174.13
2023-03-24T17:30:44.315Z,97207.22
2023-03-24T17:33:14.733Z,97229.56
2023-03-24T17:35:45.313Z,97257.28
2023-03-24T17:38:14.561Z,97266.38
2023-03-24T17:40:43.179Z,97274.66
2023-03-24T17:43:13.012Z,97274.03
2023-03-24T17:45:41.814Z,97287.47
2023-03-24T17:48:10.498Z,97290.38
2023-03-24T17:50:38.968Z,97297.41
2023-03-24T17:53:07.539Z,97281.06
2023-03-24T17:55:36.413Z,97283.34
2023-03-24T17:58:05.231Z,97275.06
2023-03-24T18:00:35.329Z,97273.41
2023-03-24T18:03:04.563Z,97277.56
2023-03-24T18:05:33.058Z,97281.06
2023-03-24T18:08:01.580Z,97268.03
2023-03-24T18:10:30.003Z,97262.88
2023-03-24T18:12:58.540Z,97263.91
2023-03-24T18:15:27.015Z,97270.09
2023-03-24T18:17:57.010Z,97262.25
2023-03-24T18:20:26.167Z,97263.50
2023-03-24T18:22:54.580Z,97262.44
2023-03-24T18:25:23.107Z,97260.81
2023-03-24T18:27:51.800Z,97247.34
2023-03-24T18:30:22.383Z,97244.66
2023-03-24T18:32:51.244Z,97245.69
2023-03-24T18:35:21.337Z,97252.09
2023-03-24T18:37:49.795Z,97261.81
2023-03-24T18:40:18.693Z,97261.81
2023-03-24T18:42:47.199Z,97261.00
2023-03-24T18:45:18.464Z,97249.41
2023-03-24T18:47:47.969Z,97260.38
2023-03-24T18:50:16.679Z,97267.41
2023-03-24T18:52:46.473Z,97259.13
2023-03-24T18:55:15.903Z,97257.50
2023-03-24T18:57:44.397Z,97255.22
2023-03-24T19:00:14.806Z,97246.50
2023-03-24T19:02:43.616Z,97257.69
2023-03-24T19:05:14.198Z,97258.09
2023-03-24T19:07:42.694Z,97246.94
2023-03-24T19:10:13.092Z,97250.66
2023-03-24T19:12:41.982Z,97258.13
2023-03-24T19:15:13.598Z,97261.81
2023-03-24T19:17:42.242Z,97256.44
2023-03-24T19:20:12.039Z,97256.44
2023-03-24T19:22:41.854Z,97253.97
2023-03-24T19:25:11.889Z,97249.41
2023-03-24T19:27:40.371Z,97252.09
2023-03-24T19:30:10.566Z,97250.03
2023-03-24T19:32:39.048Z,97251.91
2023-03-24T19:35:09.616Z,97250.88
2023-03-24T19:37:38.151Z,97250.25
2023-03-24T19:40:11.134Z,97250.25
2023-03-24T19:42:41.998Z,97252.94
2023-03-24T19:45:11.929Z,97251.28
2023-03-24T19:47:40.562Z,97251.06
2023-03-24T19:50:10.323Z,97254.78
2023-03-24T19:52:38.843Z,97255.84
2023-03-24T19:55:08.298Z,97259.34
2023-03-24T19:57:37.103Z,97257.69
2023-03-24T20:00:10.133Z,97253.16
2023-03-24T20:02:38.940Z,97255.00
2023-03-24T20:05:08.590Z,97254.16
2023-03-24T20:07:37.145Z,97250.66
2023-03-24T20:10:06.544Z,97250.47
2023-03-24T20:12:34.999Z,97249.59
2023-03-24T20:15:03.524Z,97246.09
2023-03-24T20:17:37.537Z,97248.78
2023-03-24T20:20:08.115Z,97244.22
2023-03-24T20:22:36.784Z,97246.91
2023-03-24T20:25:06.682Z,97238.03
2023-03-24T20:27:35.214Z,97242.41
2023-03-24T20:30:03.835Z,97235.34
2023-03-24T20:32:33.697Z,97239.06
2023-03-24T20:35:02.213Z,97247.16
2023-03-24T20:37:31.060Z,97252.31
2023-03-24T20:39:59.598Z,97252.31
2023-03-24T20:42:28.223Z,97251.47
2023-03-24T20:44:56.779Z,97256.03
2023-03-24T20:47:25.579Z,97245.09
2023-03-24T20:49:55.456Z,97253.34
2023-03-24T20:52:24.515Z,97261.22
2023-03-24T20:54:54.296Z,97254.16
2023-03-24T20:57:25.742Z,97248.78
2023-03-24T20:59:54.412Z,97261.41
2023-03-24T21:02:23.257Z,97254.16
2023-03-24T21:04:51.773Z,97250.66
2023-03-24T21:07:21.625Z,97249.84
2023-03-24T21:09:50.088Z,97249.84
2023-03-24T21:12:18.479Z,97253.16
2023-03-24T21:14:47.315Z,97246.09
2023-03-24T21:17:16.029Z,97250.66
2023-03-24T21:19:46.970Z,97259.53
2023-03-24T21:22:16.164Z,97258.31
2023-03-24T21:24:46.016Z,97254.78
2023-03-24T21:27:14.471Z,97255.84
2023-03-24T21:29:43.006Z,97256.44
2023-03-24T21:32:11.477Z,97265.56
2023-03-24T21:34:39.890Z,97257.06
2023-03-24T21:37:09.809Z,97262.44
2023-03-24T21:39:38.489Z,97267.81
2023-03-24T21:42:08.383Z,97260.56
2023-03-24T21:44:36.890Z,97258.75
2023-03-24T21:47:05.452Z,97252.31
2023-03-24T21:49:33.930Z,97256.06
2023-03-24T21:52:04.526Z,97249.81
2023-03-24T21:54:33.459Z,97246.31
2023-03-24T21:57:02.016Z,97250.88
2023-03-24T21:59:32.371Z,97247.56
2023-03-24T22:02:00.894Z,97249.00
2023-03-24T22:04:29.336Z,97239.91
2023-03-24T22:06:58.133Z,97235.53
2023-03-24T22:09:27.562Z,97233.91
2023-03-24T22:11:57.432Z,97241.16
2023-03-24T22:14:25.940Z,97234.09
2023-03-24T22:16:55.888Z,97246.31
2023-03-24T22:19:24.582Z,97238.22
2023-03-24T22:22:00.489Z,97247.34
2023-03-24T22:24:30.617Z,97250.66
2023-03-24T22:26:59.076Z,97235.53
2023-03-24T22:29:28.960Z,97240.94
2023-03-24T22:31:58.863Z,97240.94
2023-03-24T22:34:27.635Z,97243.63
2023-03-24T22:36:56.274Z,97238.22
2023-03-24T22:39:25.012Z,97231.22
2023-03-24T22:41:53.552Z,97231.22
2023-03-24T22:44:22.044Z,97232.84
2023-03-24T22:46:50.679Z,97236.59
2023-03-24T22:49:20.760Z,97229.34
2023-03-24T22:51:50.451Z,97241.97
2023-03-24T22:54:19.022Z,97235.78
2023-03-24T22:56:47.498Z,97237.41
2023-03-24T22:59:16.000Z,97233.09
2023-03-24T23:01:44.855Z,97229.53
2023-03-24T23:04:13.772Z,97227.91
2023-03-24T23:06:43.584Z,97212.59
2023-03-24T23:09:11.984Z,97213.63
2023-03-24T23:11:40.401Z,97222.53
2023-03-24T23:14:09.318Z,97234.91
2023-03-24T23:16:38.784Z,97232.47
2023-03-24T23:19:08.650Z,97231.22
2023-03-24T23:21:37.349Z,97236.59
2023-03-24T23:24:07.933Z,97240.31
2023-03-24T23:26:36.746Z,97244.84
2023-03-24T23:29:05.228Z,97240.53
2023-03-24T23:31:35.807Z,97238.84
2023-03-24T23:34:07.444Z,97238.84
2023-03-24T23:36:36.237Z,97235.34
2023-03-24T23:39:06.093Z,97227.28
2023-03-24T23:41:34.756Z,97221.06
2023-03-24T23:44:03.289Z,97207.63
2023-03-24T23:46:33.711Z,97213.81
2023-03-24T23:49:02.498Z,97221.06
2023-03-24T23:51:30.984Z,97218.38
2023-03-24T23:53:59.571Z,97203.06
2023-03-24T23:56:30.636Z,97208.44
2023-03-24T23:58:59.403Z,97213.81
